West Fort Ann, New York
Current Conditions -  °F | °C
As of 1:53 AM on Friday 31 Oct 2014 (Local Time) from KGFL Reporting Station
Clear Clear  
Wind Chill: 31°   Ceiling: Unl
Heat Index: 31°   Visibility: 10mi
Dew Point: 29°   Wind: 0mph
Humidity: 92%   Direction: NA
Pressure: 30.03"   Gusts: NA
Location:  43.4639°N, 73.5204°W
Report Text: KGFL 310553Z AUTO 00000KT 10SM CLR M01/M02 A3003 RMK AO2 SLP174 T10061017 10072 21006 50001
Loading
Personal Weather Stations






























Interactive Weather Map New forecast layout! Learn more

10-Day Weather Forecast

Advertisements
Track Severe Weather on mobile